Terminal Aerodrome Forecast
Issued by NWS

Home | Current Version | Previous Version | Text Only | Print | Product List | Glossary On
Versions: 1 2 3 4 5 6 7 8 9 10 11 12 13 14 15 16
000
FTUS46 KMTR 212343 AAA
TAFSNS
TAF AMD
KSNS 212343Z 2200/2224 28012KT P6SM FEW021
     FM220200 30007KT P6SM OVC008
     FM220500 31005KT P6SM OVC007
     FM221900 29006KT P6SM SKC
     FM222100 28013KT P6SM SKC=

USA.gov is the U.S. government's official web portal to all federal, state and local government web resources and services.